sensor_id;sensor_type;location;lat;lon;timestamp;noise_LAeq;noise_LA_min;noise_LA_max;noise_LA01;noise_LA95
71016;Laerm;60940;52.046;5.340;2023-04-15T00:00:03;29.85;28.67;35.45;;
71016;Laerm;60940;52.046;5.340;2023-04-15T00:00:14;30.07;28.35;35.86;;
71016;Laerm;60940;52.046;5.340;2023-04-15T00:00:24;30.11;28.21;37.19;;
71016;Laerm;60940;52.046;5.340;2023-04-15T00:00:35;29.27;28.24;31.44;;
71016;Laerm;60940;52.046;5.340;2023-04-15T00:00:46;29.73;28.49;33.18;;
71016;Laerm;60940;52.046;5.340;2023-04-15T00:00:59;29.57;28.48;34.94;;
71016;Laerm;60940;52.046;5.340;2023-04-15T00:01:10;29.78;28.24;31.45;;
71016;Laerm;60940;52.046;5.340;2023-04-15T00:01:20;31.58;29.52;36.12;;
71016;Laerm;60940;52.046;5.340;2023-04-15T00:01:31;36.40;31.13;50.76;;
71016;Laerm;60940;52.046;5.340;2023-04-15T00:01:43;38.67;29.60;56.61;;
71016;Laerm;60940;52.046;5.340;2023-04-15T00:01:54;33.34;30.02;43.80;;
71016;Laerm;60940;52.046;5.340;2023-04-15T00:02:17;30.77;29.02;36.36;;
71016;Laerm;60940;52.046;5.340;2023-04-15T00:02:27;29.67;28.31;32.08;;
71016;Laerm;60940;52.046;5.340;2023-04-15T00:02:38;30.08;28.32;32.22;;
71016;Laerm;60940;52.046;5.340;2023-04-15T00:02:48;29.82;28.43;32.15;;
71016;Laerm;60940;52.046;5.340;2023-04-15T00:02:58;30.57;28.78;32.58;;
71016;Laerm;60940;52.046;5.340;2023-04-15T00:03:11;30.04;28.68;34.52;;
71016;Laerm;60940;52.046;5.340;2023-04-15T00:03:21;29.78;28.62;36.36;;
71016;Laerm;60940;52.046;5.340;2023-04-15T00:03:31;30.20;28.43;39.90;;
71016;Laerm;60940;52.046;5.340;2023-04-15T00:03:43;29.60;28.54;31.23;;
71016;Laerm;60940;52.046;5.340;2023-04-15T00:03:53;29.51;28.01;31.41;;
71016;Laerm;60940;52.046;5.340;2023-04-15T00:04:04;30.38;28.87;31.87;;
71016;Laerm;60940;52.046;5.340;2023-04-15T00:04:14;30.55;28.68;32.69;;
71016;Laerm;60940;52.046;5.340;2023-04-15T00:04:24;30.67;28.99;32.25;;
71016;Laerm;60940;52.046;5.340;2023-04-15T00:04:34;30.22;28.81;32.14;;
71016;Laerm;60940;52.046;5.340;2023-04-15T00:04:46;29.91;28.80;31.21;;
71016;Laerm;60940;52.046;5.340;2023-04-15T00:04:57;29.69;28.44;31.13;;
71016;Laerm;60940;52.046;5.340;2023-04-15T00:05:07;30.56;29.10;32.00;;
71016;Laerm;60940;52.046;5.340;2023-04-15T00:05:17;32.65;30.16;35.73;;
71016;Laerm;60940;52.046;5.340;2023-04-15T00:05:30;34.39;29.98;39.87;;
71016;Laerm;60940;52.046;5.340;2023-04-15T00:05:41;29.82;28.40;33.37;;
71016;Laerm;60940;52.046;5.340;2023-04-15T00:05:52;29.78;28.76;30.87;;
71016;Laerm;60940;52.046;5.340;2023-04-15T00:06:02;30.67;29.04;32.57;;
71016;Laerm;60940;52.046;5.340;2023-04-15T00:06:12;31.37;29.50;36.72;;
71016;Laerm;60940;52.046;5.340;2023-04-15T00:06:23;31.96;29.70;37.89;;
71016;Laerm;60940;52.046;5.340;2023-04-15T00:06:35;33.51;29.99;43.86;;
71016;Laerm;60940;52.046;5.340;2023-04-15T00:06:49;33.03;29.41;42.37;;
71016;Laerm;60940;52.046;5.340;2023-04-15T00:07:00;31.25;28.66;34.58;;
71016;Laerm;60940;52.046;5.340;2023-04-15T00:07:12;31.03;28.93;39.94;;
71016;Laerm;60940;52.046;5.340;2023-04-15T00:07:22;30.41;29.08;32.22;;
71016;Laerm;60940;52.046;5.340;2023-04-15T00:07:32;30.65;29.21;36.68;;
71016;Laerm;60940;52.046;5.340;2023-04-15T00:07:42;30.21;28.79;31.81;;
71016;Laerm;60940;52.046;5.340;2023-04-15T00:07:52;30.64;29.22;32.11;;
71016;Laerm;60940;52.046;5.340;2023-04-15T00:08:03;30.42;29.09;32.63;;
71016;Laerm;60940;52.046;5.340;2023-04-15T00:08:14;29.86;28.63;34.20;;
71016;Laerm;60940;52.046;5.340;2023-04-15T00:08:24;30.40;28.53;34.82;;
71016;Laerm;60940;52.046;5.340;2023-04-15T00:08:34;31.47;29.59;33.78;;
71016;Laerm;60940;52.046;5.340;2023-04-15T00:08:45;30.32;28.59;32.01;;
71016;Laerm;60940;52.046;5.340;2023-04-15T00:08:55;29.64;28.25;30.86;;
71016;Laerm;60940;52.046;5.340;2023-04-15T00:09:06;29.29;28.14;31.80;;
71016;Laerm;60940;52.046;5.340;2023-04-15T00:09:16;29.33;28.29;31.11;;
71016;Laerm;60940;52.046;5.340;2023-04-15T00:09:26;29.59;28.54;30.95;;
71016;Laerm;60940;52.046;5.340;2023-04-15T00:09:36;29.94;28.44;32.05;;
71016;Laerm;60940;52.046;5.340;2023-04-15T00:09:47;29.70;28.47;30.95;;
71016;Laerm;60940;52.046;5.340;2023-04-15T00:09:57;29.65;28.37;31.20;;
71016;Laerm;60940;52.046;5.340;2023-04-15T00:10:08;30.23;28.33;32.05;;
71016;Laerm;60940;52.046;5.340;2023-04-15T00:10:18;31.51;29.50;34.13;;
71016;Laerm;60940;52.046;5.340;2023-04-15T00:10:28;30.18;28.43;31.79;;
71016;Laerm;60940;52.046;5.340;2023-04-15T00:10:38;30.89;29.30;33.04;;
71016;Laerm;60940;52.046;5.340;2023-04-15T00:10:48;30.36;28.89;32.04;;
71016;Laerm;60940;52.046;5.340;2023-04-15T00:10:59;30.84;29.15;33.06;;
71016;Laerm;60940;52.046;5.340;2023-04-15T00:11:12;30.81;28.91;33.44;;
71016;Laerm;60940;52.046;5.340;2023-04-15T00:11:23;30.48;28.44;34.90;;
71016;Laerm;60940;52.046;5.340;2023-04-15T00:11:33;29.31;28.05;30.95;;
71016;Laerm;60940;52.046;5.340;2023-04-15T00:11:44;29.70;28.59;31.15;;
71016;Laerm;60940;52.046;5.340;2023-04-15T00:11:54;29.56;28.36;31.11;;
71016;Laerm;60940;52.046;5.340;2023-04-15T00:12:04;29.58;27.91;30.96;;
71016;Laerm;60940;52.046;5.340;2023-04-15T00:12:15;29.75;28.31;32.54;;
71016;Laerm;60940;52.046;5.340;2023-04-15T00:12:25;30.01;28.86;31.90;;
71016;Laerm;60940;52.046;5.340;2023-04-15T00:12:36;31.02;29.05;34.34;;
71016;Laerm;60940;52.046;5.340;2023-04-15T00:12:46;30.61;29.33;32.47;;
71016;Laerm;60940;52.046;5.340;2023-04-15T00:12:56;29.96;28.50;31.72;;
71016;Laerm;60940;52.046;5.340;2023-04-15T00:13:07;29.70;28.30;31.17;;
71016;Laerm;60940;52.046;5.340;2023-04-15T00:13:17;29.55;28.25;31.07;;
71016;Laerm;60940;52.046;5.340;2023-04-15T00:13:29;29.44;28.24;30.76;;
71016;Laerm;60940;52.046;5.340;2023-04-15T00:13:39;29.48;28.02;30.90;;
71016;Laerm;60940;52.046;5.340;2023-04-15T00:13:50;29.77;28.21;31.42;;
71016;Laerm;60940;52.046;5.340;2023-04-15T00:14:00;32.29;29.36;36.19;;
71016;Laerm;60940;52.046;5.340;2023-04-15T00:14:13;30.97;29.21;34.47;;
71016;Laerm;60940;52.046;5.340;2023-04-15T00:14:24;30.21;28.69;33.65;;
71016;Laerm;60940;52.046;5.340;2023-04-15T00:14:35;30.42;28.35;32.64;;
71016;Laerm;60940;52.046;5.340;2023-04-15T00:14:45;30.84;29.00;33.34;;
71016;Laerm;60940;52.046;5.340;2023-04-15T00:14:56;29.77;28.54;31.96;;
71016;Laerm;60940;52.046;5.340;2023-04-15T00:15:07;29.59;28.44;31.06;;
71016;Laerm;60940;52.046;5.340;2023-04-15T00:15:18;29.55;28.18;31.00;;
71016;Laerm;60940;52.046;5.340;2023-04-15T00:15:28;30.50;28.22;39.78;;
71016;Laerm;60940;52.046;5.340;2023-04-15T00:15:38;29.22;28.07;33.08;;
71016;Laerm;60940;52.046;5.340;2023-04-15T00:15:48;29.39;28.25;30.67;;
71016;Laerm;60940;52.046;5.340;2023-04-15T00:15:59;31.12;28.81;36.53;;
71016;Laerm;60940;52.046;5.340;2023-04-15T00:16:09;32.20;29.91;34.99;;
71016;Laerm;60940;52.046;5.340;2023-04-15T00:16:20;31.00;28.92;33.60;;
71016;Laerm;60940;52.046;5.340;2023-04-15T00:16:30;30.55;28.85;32.21;;
71016;Laerm;60940;52.046;5.340;2023-04-15T00:16:41;30.59;28.92;32.50;;
71016;Laerm;60940;52.046;5.340;2023-04-15T00:16:51;30.36;28.78;31.92;;
71016;Laerm;60940;52.046;5.340;2023-04-15T00:17:05;30.04;28.60;34.29;;
71016;Laerm;60940;52.046;5.340;2023-04-15T00:17:15;30.41;28.88;32.74;;
71016;Laerm;60940;52.046;5.340;2023-04-15T00:17:26;29.70;27.99;33.90;;
71016;Laerm;60940;52.046;5.340;2023-04-15T00:17:36;30.12;28.82;33.38;;
71016;Laerm;60940;52.046;5.340;2023-04-15T00:17:49;29.74;28.47;30.86;;
71016;Laerm;60940;52.046;5.340;2023-04-15T00:17:59;29.57;28.28;34.17;;
71016;Laerm;60940;52.046;5.340;2023-04-15T00:18:10;29.55;28.41;31.76;;
71016;Laerm;60940;52.046;5.340;2023-04-15T00:18:20;29.76;28.66;31.41;;
71016;Laerm;60940;52.046;5.340;2023-04-15T00:18:30;30.31;28.65;42.91;;
71016;Laerm;60940;52.046;5.340;2023-04-15T00:18:41;29.83;28.43;36.73;;
71016;Laerm;60940;52.046;5.340;2023-04-15T00:18:51;29.29;28.22;30.71;;
71016;Laerm;60940;52.046;5.340;2023-04-15T00:19:01;29.34;28.32;31.17;;
71016;Laerm;60940;52.046;5.340;2023-04-15T00:19:11;29.21;27.90;30.39;;
71016;Laerm;60940;52.046;5.340;2023-04-15T00:19:22;29.45;28.12;31.52;;
71016;Laerm;60940;52.046;5.340;2023-04-15T00:19:33;29.13;28.13;33.22;;
71016;Laerm;60940;52.046;5.340;2023-04-15T00:19:43;29.05;28.00;31.26;;
71016;Laerm;60940;52.046;5.340;2023-04-15T00:19:54;29.21;28.07;30.30;;
71016;Laerm;60940;52.046;5.340;2023-04-15T00:20:05;29.36;28.17;30.24;;
71016;Laerm;60940;52.046;5.340;2023-04-15T00:20:15;29.65;28.40;31.15;;
71016;Laerm;60940;52.046;5.340;2023-04-15T00:20:26;30.25;28.61;31.95;;
71016;Laerm;60940;52.046;5.340;2023-04-15T00:20:36;33.13;28.76;43.05;;
71016;Laerm;60940;52.046;5.340;2023-04-15T00:20:47;34.08;29.21;41.47;;
71016;Laerm;60940;52.046;5.340;2023-04-15T00:20:57;32.38;30.60;39.03;;
71016;Laerm;60940;52.046;5.340;2023-04-15T00:21:08;30.51;28.53;32.94;;
71016;Laerm;60940;52.046;5.340;2023-04-15T00:21:18;29.67;28.48;30.87;;
71016;Laerm;60940;52.046;5.340;2023-04-15T00:21:28;29.52;28.35;31.06;;
71016;Laerm;60940;52.046;5.340;2023-04-15T00:21:39;29.53;28.43;30.73;;
71016;Laerm;60940;52.046;5.340;2023-04-15T00:21:49;30.08;28.69;32.81;;
71016;Laerm;60940;52.046;5.340;2023-04-15T00:22:00;31.53;29.03;42.57;;
71016;Laerm;60940;52.046;5.340;2023-04-15T00:22:11;32.25;28.90;42.34;;
71016;Laerm;60940;52.046;5.340;2023-04-15T00:22:21;29.90;28.57;31.40;;
71016;Laerm;60940;52.046;5.340;2023-04-15T00:22:31;29.92;28.44;31.24;;
71016;Laerm;60940;52.046;5.340;2023-04-15T00:22:42;30.69;28.88;37.11;;
71016;Laerm;60940;52.046;5.340;2023-04-15T00:22:52;31.33;29.14;36.29;;
71016;Laerm;60940;52.046;5.340;2023-04-15T00:23:02;33.03;29.59;43.32;;
71016;Laerm;60940;52.046;5.340;2023-04-15T00:23:13;31.74;29.04;42.34;;
71016;Laerm;60940;52.046;5.340;2023-04-15T00:23:23;30.44;28.58;34.05;;
71016;Laerm;60940;52.046;5.340;2023-04-15T00:23:33;29.90;28.50;34.11;;
71016;Laerm;60940;52.046;5.340;2023-04-15T00:23:45;30.64;28.67;34.73;;
71016;Laerm;60940;52.046;5.340;2023-04-15T00:23:58;30.54;28.72;31.79;;
71016;Laerm;60940;52.046;5.340;2023-04-15T00:24:08;31.21;29.52;33.32;;
71016;Laerm;60940;52.046;5.340;2023-04-15T00:24:19;30.96;28.76;33.75;;
71016;Laerm;60940;52.046;5.340;2023-04-15T00:24:29;29.55;28.53;30.83;;
71016;Laerm;60940;52.046;5.340;2023-04-15T00:24:40;29.72;28.43;32.41;;
71016;Laerm;60940;52.046;5.340;2023-04-15T00:24:52;30.72;29.20;33.87;;
71016;Laerm;60940;52.046;5.340;2023-04-15T00:25:02;31.13;29.90;32.73;;
71016;Laerm;60940;52.046;5.340;2023-04-15T00:25:12;31.45;29.55;37.11;;
71016;Laerm;60940;52.046;5.340;2023-04-15T00:25:24;29.98;28.43;32.19;;
71016;Laerm;60940;52.046;5.340;2023-04-15T00:25:34;29.77;28.44;30.92;;
71016;Laerm;60940;52.046;5.340;2023-04-15T00:25:44;29.73;28.31;33.07;;
71016;Laerm;60940;52.046;5.340;2023-04-15T00:25:54;29.73;28.45;31.11;;
71016;Laerm;60940;52.046;5.340;2023-04-15T00:26:05;30.03;28.47;31.73;;
71016;Laerm;60940;52.046;5.340;2023-04-15T00:26:16;30.94;28.37;38.51;;
71016;Laerm;60940;52.046;5.340;2023-04-15T00:26:26;33.54;29.85;44.24;;
71016;Laerm;60940;52.046;5.340;2023-04-15T00:26:36;33.38;31.41;41.17;;
71016;Laerm;60940;52.046;5.340;2023-04-15T00:26:47;36.43;29.16;49.97;;
71016;Laerm;60940;52.046;5.340;2023-04-15T00:26:58;31.73;28.73;40.48;;
71016;Laerm;60940;52.046;5.340;2023-04-15T00:27:08;30.33;28.63;35.31;;
71016;Laerm;60940;52.046;5.340;2023-04-15T00:27:19;31.62;29.00;39.83;;
71016;Laerm;60940;52.046;5.340;2023-04-15T00:27:29;30.90;28.74;37.65;;
71016;Laerm;60940;52.046;5.340;2023-04-15T00:27:40;30.91;28.95;38.15;;
71016;Laerm;60940;52.046;5.340;2023-04-15T00:27:50;30.36;28.40;37.77;;
71016;Laerm;60940;52.046;5.340;2023-04-15T00:28:00;30.66;28.86;36.60;;
71016;Laerm;60940;52.046;5.340;2023-04-15T00:28:10;31.60;29.23;36.59;;
71016;Laerm;60940;52.046;5.340;2023-04-15T00:28:20;33.27;28.92;44.00;;
71016;Laerm;60940;52.046;5.340;2023-04-15T00:28:31;30.40;28.59;39.15;;
71016;Laerm;60940;52.046;5.340;2023-04-15T00:28:41;29.87;28.41;33.39;;
71016;Laerm;60940;52.046;5.340;2023-04-15T00:28:52;30.11;28.68;31.49;;
71016;Laerm;60940;52.046;5.340;2023-04-15T00:29:03;30.56;28.94;36.01;;
71016;Laerm;60940;52.046;5.340;2023-04-15T00:29:13;30.72;28.87;35.63;;
71016;Laerm;60940;52.046;5.340;2023-04-15T00:29:24;31.01;28.23;37.72;;
71016;Laerm;60940;52.046;5.340;2023-04-15T00:29:34;30.31;28.46;32.86;;
71016;Laerm;60940;52.046;5.340;2023-04-15T00:29:44;29.56;28.08;31.74;;
71016;Laerm;60940;52.046;5.340;2023-04-15T00:29:55;29.41;28.25;31.00;;
71016;Laerm;60940;52.046;5.340;2023-04-15T00:30:05;30.08;28.34;33.62;;
71016;Laerm;60940;52.046;5.340;2023-04-15T00:30:16;29.91;28.48;32.94;;
71016;Laerm;60940;52.046;5.340;2023-04-15T00:30:26;30.63;28.79;38.79;;
71016;Laerm;60940;52.046;5.340;2023-04-15T00:30:36;30.82;29.04;32.52;;
71016;Laerm;60940;52.046;5.340;2023-04-15T00:30:46;29.66;28.71;30.91;;
71016;Laerm;60940;52.046;5.340;2023-04-15T00:30:57;29.64;28.44;30.87;;
71016;Laerm;60940;52.046;5.340;2023-04-15T00:31:07;29.78;28.69;34.38;;
71016;Laerm;60940;52.046;5.340;2023-04-15T00:31:17;29.89;28.61;34.40;;
71016;Laerm;60940;52.046;5.340;2023-04-15T00:31:28;30.20;28.35;37.82;;
71016;Laerm;60940;52.046;5.340;2023-04-15T00:31:39;29.62;28.49;31.18;;
71016;Laerm;60940;52.046;5.340;2023-04-15T00:31:49;30.23;28.38;38.65;;
71016;Laerm;60940;52.046;5.340;2023-04-15T00:31:59;29.52;28.47;30.74;;
71016;Laerm;60940;52.046;5.340;2023-04-15T00:32:10;29.83;28.65;31.09;;
71016;Laerm;60940;52.046;5.340;2023-04-15T00:32:20;30.90;28.63;41.31;;
71016;Laerm;60940;52.046;5.340;2023-04-15T00:32:30;37.55;29.44;54.11;;
71016;Laerm;60940;52.046;5.340;2023-04-15T00:32:41;32.60;28.75;41.82;;
71016;Laerm;60940;52.046;5.340;2023-04-15T00:32:51;31.12;29.45;34.29;;
71016;Laerm;60940;52.046;5.340;2023-04-15T00:33:01;31.89;29.39;36.23;;
71016;Laerm;60940;52.046;5.340;2023-04-15T00:33:13;32.84;29.58;44.99;;
71016;Laerm;60940;52.046;5.340;2023-04-15T00:33:23;35.29;29.80;50.08;;
71016;Laerm;60940;52.046;5.340;2023-04-15T00:33:33;31.77;29.82;36.86;;
71016;Laerm;60940;52.046;5.340;2023-04-15T00:33:45;30.85;28.48;43.19;;
71016;Laerm;60940;52.046;5.340;2023-04-15T00:33:55;29.62;28.12;32.12;;
71016;Laerm;60940;52.046;5.340;2023-04-15T00:34:06;29.62;28.23;31.63;;
71016;Laerm;60940;52.046;5.340;2023-04-15T00:34:16;29.87;28.48;32.15;;
71016;Laerm;60940;52.046;5.340;2023-04-15T00:34:26;29.86;28.51;31.27;;
71016;Laerm;60940;52.046;5.340;2023-04-15T00:34:37;30.49;28.54;32.82;;
71016;Laerm;60940;52.046;5.340;2023-04-15T00:34:48;32.05;28.56;44.40;;
71016;Laerm;60940;52.046;5.340;2023-04-15T00:34:58;31.75;29.56;35.71;;
71016;Laerm;60940;52.046;5.340;2023-04-15T00:35:09;31.32;29.53;33.88;;
71016;Laerm;60940;52.046;5.340;2023-04-15T00:35:19;30.64;28.93;32.52;;
71016;Laerm;60940;52.046;5.340;2023-04-15T00:35:30;31.23;29.28;33.39;;
71016;Laerm;60940;52.046;5.340;2023-04-15T00:35:44;32.44;29.77;35.52;;
71016;Laerm;60940;52.046;5.340;2023-04-15T00:35:55;31.85;29.27;36.28;;
71016;Laerm;60940;52.046;5.340;2023-04-15T00:36:05;31.34;29.47;34.74;;
71016;Laerm;60940;52.046;5.340;2023-04-15T00:36:15;30.60;29.05;33.03;;
71016;Laerm;60940;52.046;5.340;2023-04-15T00:36:26;30.86;29.11;36.05;;
71016;Laerm;60940;52.046;5.340;2023-04-15T00:36:36;30.81;29.04;34.48;;
71016;Laerm;60940;52.046;5.340;2023-04-15T00:36:46;30.39;29.12;31.98;;
71016;Laerm;60940;52.046;5.340;2023-04-15T00:36:57;29.79;28.77;31.34;;
71016;Laerm;60940;52.046;5.340;2023-04-15T00:37:08;29.71;28.65;34.23;;
71016;Laerm;60940;52.046;5.340;2023-04-15T00:37:18;30.51;28.47;41.73;;
71016;Laerm;60940;52.046;5.340;2023-04-15T00:37:29;29.39;28.13;32.47;;
71016;Laerm;60940;52.046;5.340;2023-04-15T00:37:39;29.77;28.30;37.64;;
71016;Laerm;60940;52.046;5.340;2023-04-15T00:37:50;29.34;27.97;30.63;;
71016;Laerm;60940;52.046;5.340;2023-04-15T00:38:00;29.65;28.31;35.99;;
71016;Laerm;60940;52.046;5.340;2023-04-15T00:38:10;29.84;28.67;32.98;;
71016;Laerm;60940;52.046;5.340;2023-04-15T00:38:20;29.58;28.37;31.50;;
71016;Laerm;60940;52.046;5.340;2023-04-15T00:38:31;29.29;27.95;30.38;;
71016;Laerm;60940;52.046;5.340;2023-04-15T00:38:41;31.01;28.38;35.11;;
71016;Laerm;60940;52.046;5.340;2023-04-15T00:38:51;30.99;29.22;32.81;;
71016;Laerm;60940;52.046;5.340;2023-04-15T00:39:01;30.18;28.19;31.95;;
71016;Laerm;60940;52.046;5.340;2023-04-15T00:39:12;30.39;28.38;34.71;;
71016;Laerm;60940;52.046;5.340;2023-04-15T00:39:22;30.53;28.66;32.97;;
71016;Laerm;60940;52.046;5.340;2023-04-15T00:39:32;30.31;28.65;32.25;;
71016;Laerm;60940;52.046;5.340;2023-04-15T00:39:43;30.11;28.82;31.71;;
71016;Laerm;60940;52.046;5.340;2023-04-15T00:39:54;30.23;29.10;31.64;;
71016;Laerm;60940;52.046;5.340;2023-04-15T00:40:04;29.99;28.74;31.26;;
71016;Laerm;60940;52.046;5.340;2023-04-15T00:40:17;30.32;28.28;38.00;;
71016;Laerm;60940;52.046;5.340;2023-04-15T00:40:28;29.62;28.42;34.32;;
71016;Laerm;60940;52.046;5.340;2023-04-15T00:40:38;29.72;28.26;37.53;;
71016;Laerm;60940;52.046;5.340;2023-04-15T00:40:48;29.84;28.59;31.70;;
71016;Laerm;60940;52.046;5.340;2023-04-15T00:40:58;29.98;28.71;35.75;;
71016;Laerm;60940;52.046;5.340;2023-04-15T00:41:09;29.26;28.02;30.34;;
71016;Laerm;60940;52.046;5.340;2023-04-15T00:41:19;29.30;28.06;31.39;;
71016;Laerm;60940;52.046;5.340;2023-04-15T00:41:30;29.44;28.17;30.58;;
71016;Laerm;60940;52.046;5.340;2023-04-15T00:41:40;30.17;28.59;34.79;;
71016;Laerm;60940;52.046;5.340;2023-04-15T00:41:51;30.25;28.70;35.27;;
71016;Laerm;60940;52.046;5.340;2023-04-15T00:42:03;29.76;28.59;30.84;;
71016;Laerm;60940;52.046;5.340;2023-04-15T00:42:13;29.77;27.98;36.59;;
71016;Laerm;60940;52.046;5.340;2023-04-15T00:42:24;29.49;27.76;33.35;;
71016;Laerm;60940;52.046;5.340;2023-04-15T00:42:34;29.40;28.03;30.94;;
71016;Laerm;60940;52.046;5.340;2023-04-15T00:42:45;30.39;28.48;33.48;;
71016;Laerm;60940;52.046;5.340;2023-04-15T00:42:55;30.74;28.88;33.35;;
71016;Laerm;60940;52.046;5.340;2023-04-15T00:43:05;29.39;27.70;31.05;;
71016;Laerm;60940;52.046;5.340;2023-04-15T00:43:16;29.13;28.13;30.37;;
71016;Laerm;60940;52.046;5.340;2023-04-15T00:43:26;29.28;28.09;30.53;;
71016;Laerm;60940;52.046;5.340;2023-04-15T00:43:36;29.32;27.83;31.30;;
71016;Laerm;60940;52.046;5.340;2023-04-15T00:43:47;30.22;28.09;38.90;;
71016;Laerm;60940;52.046;5.340;2023-04-15T00:43:57;29.19;28.12;33.53;;
71016;Laerm;60940;52.046;5.340;2023-04-15T00:44:08;29.16;28.21;30.21;;
71016;Laerm;60940;52.046;5.340;2023-04-15T00:44:18;29.11;28.17;30.33;;
71016;Laerm;60940;52.046;5.340;2023-04-15T00:44:28;29.25;28.17;30.30;;
71016;Laerm;60940;52.046;5.340;2023-04-15T00:44:38;29.44;28.15;30.57;;
71016;Laerm;60940;52.046;5.340;2023-04-15T00:44:49;29.70;28.31;34.77;;
71016;Laerm;60940;52.046;5.340;2023-04-15T00:44:59;30.07;28.85;31.34;;
71016;Laerm;60940;52.046;5.340;2023-04-15T00:45:09;29.73;28.44;31.53;;
71016;Laerm;60940;52.046;5.340;2023-04-15T00:45:20;29.76;28.26;31.20;;
71016;Laerm;60940;52.046;5.340;2023-04-15T00:45:30;30.02;28.90;31.22;;
71016;Laerm;60940;52.046;5.340;2023-04-15T00:45:40;30.24;28.87;35.12;;
71016;Laerm;60940;52.046;5.340;2023-04-15T00:45:51;32.56;29.51;35.96;;
71016;Laerm;60940;52.046;5.340;2023-04-15T00:46:03;33.16;30.85;43.89;;
71016;Laerm;60940;52.046;5.340;2023-04-15T00:46:13;31.73;29.79;37.10;;
71016;Laerm;60940;52.046;5.340;2023-04-15T00:46:25;30.77;29.42;33.76;;
71016;Laerm;60940;52.046;5.340;2023-04-15T00:46:36;31.80;29.50;34.44;;
71016;Laerm;60940;52.046;5.340;2023-04-15T00:46:47;30.39;29.00;32.70;;
71016;Laerm;60940;52.046;5.340;2023-04-15T00:47:00;29.97;28.55;36.87;;
71016;Laerm;60940;52.046;5.340;2023-04-15T00:47:11;29.43;28.17;30.92;;
71016;Laerm;60940;52.046;5.340;2023-04-15T00:47:21;29.66;28.40;31.96;;
71016;Laerm;60940;52.046;5.340;2023-04-15T00:47:32;29.69;28.47;31.20;;
71016;Laerm;60940;52.046;5.340;2023-04-15T00:47:42;29.76;28.42;31.54;;
71016;Laerm;60940;52.046;5.340;2023-04-15T00:47:53;29.37;28.07;31.94;;
71016;Laerm;60940;52.046;5.340;2023-04-15T00:48:03;29.71;28.10;31.07;;
71016;Laerm;60940;52.046;5.340;2023-04-15T00:48:14;30.17;28.66;32.15;;
71016;Laerm;60940;52.046;5.340;2023-04-15T00:48:25;30.80;28.91;41.08;;
71016;Laerm;60940;52.046;5.340;2023-04-15T00:48:36;30.86;28.43;40.61;;
71016;Laerm;60940;52.046;5.340;2023-04-15T00:48:47;30.44;29.06;31.83;;
71016;Laerm;60940;52.046;5.340;2023-04-15T00:48:58;30.44;29.16;31.64;;
71016;Laerm;60940;52.046;5.340;2023-04-15T00:49:08;30.85;29.48;32.63;;
71016;Laerm;60940;52.046;5.340;2023-04-15T00:49:18;31.18;29.38;41.03;;
71016;Laerm;60940;52.046;5.340;2023-04-15T00:49:29;30.84;29.23;32.58;;
71016;Laerm;60940;52.046;5.340;2023-04-15T00:49:39;40.18;29.44;52.25;;
71016;Laerm;60940;52.046;5.340;2023-04-15T00:49:49;33.03;29.55;43.59;;
71016;Laerm;60940;52.046;5.340;2023-04-15T00:50:01;36.03;29.32;48.94;;
71016;Laerm;60940;52.046;5.340;2023-04-15T00:50:11;31.38;28.72;43.03;;
71016;Laerm;60940;52.046;5.340;2023-04-15T00:50:21;30.15;28.99;34.76;;
71016;Laerm;60940;52.046;5.340;2023-04-15T00:50:32;30.49;28.94;33.41;;
71016;Laerm;60940;52.046;5.340;2023-04-15T00:50:42;33.42;31.31;38.58;;
71016;Laerm;60940;52.046;5.340;2023-04-15T00:50:52;38.48;30.91;51.18;;
71016;Laerm;60940;52.046;5.340;2023-04-15T00:51:02;31.46;29.17;34.66;;
71016;Laerm;60940;52.046;5.340;2023-04-15T00:51:13;30.18;29.02;33.15;;
71016;Laerm;60940;52.046;5.340;2023-04-15T00:51:23;30.63;28.69;38.43;;
71016;Laerm;60940;52.046;5.340;2023-04-15T00:51:34;30.54;29.06;33.19;;
71016;Laerm;60940;52.046;5.340;2023-04-15T00:51:47;31.42;29.19;34.02;;
71016;Laerm;60940;52.046;5.340;2023-04-15T00:51:58;32.08;29.81;40.36;;
71016;Laerm;60940;52.046;5.340;2023-04-15T00:52:08;32.47;29.65;44.64;;
71016;Laerm;60940;52.046;5.340;2023-04-15T00:52:18;33.48;30.54;42.52;;
71016;Laerm;60940;52.046;5.340;2023-04-15T00:52:29;35.23;29.34;48.23;;
71016;Laerm;60940;52.046;5.340;2023-04-15T00:52:39;31.01;29.66;32.77;;
71016;Laerm;60940;52.046;5.340;2023-04-15T00:52:50;32.13;30.59;34.13;;
71016;Laerm;60940;52.046;5.340;2023-04-15T00:53:00;32.93;29.95;37.11;;
71016;Laerm;60940;52.046;5.340;2023-04-15T00:53:11;32.54;30.90;34.78;;
71016;Laerm;60940;52.046;5.340;2023-04-15T00:53:21;32.09;30.12;34.67;;
71016;Laerm;60940;52.046;5.340;2023-04-15T00:53:31;32.19;30.02;39.78;;
71016;Laerm;60940;52.046;5.340;2023-04-15T00:53:41;40.93;31.09;55.68;;
71016;Laerm;60940;52.046;5.340;2023-04-15T00:53:52;34.07;29.60;45.55;;
71016;Laerm;60940;52.046;5.340;2023-04-15T00:54:03;33.46;30.05;43.76;;
71016;Laerm;60940;52.046;5.340;2023-04-15T00:54:13;31.81;29.29;43.91;;
71016;Laerm;60940;52.046;5.340;2023-04-15T00:54:24;31.43;29.81;32.62;;
71016;Laerm;60940;52.046;5.340;2023-04-15T00:54:34;31.71;29.56;33.35;;
71016;Laerm;60940;52.046;5.340;2023-04-15T00:54:45;31.82;30.37;33.31;;
71016;Laerm;60940;52.046;5.340;2023-04-15T00:54:55;31.57;29.94;33.16;;
71016;Laerm;60940;52.046;5.340;2023-04-15T00:55:06;31.07;29.70;37.26;;
71016;Laerm;60940;52.046;5.340;2023-04-15T00:55:16;31.42;30.01;34.79;;
71016;Laerm;60940;52.046;5.340;2023-04-15T00:55:26;32.77;30.04;41.03;;
71016;Laerm;60940;52.046;5.340;2023-04-15T00:55:37;31.29;29.60;38.03;;
71016;Laerm;60940;52.046;5.340;2023-04-15T00:55:47;32.31;30.50;36.56;;
71016;Laerm;60940;52.046;5.340;2023-04-15T00:55:57;36.51;30.78;45.22;;
71016;Laerm;60940;52.046;5.340;2023-04-15T00:56:07;41.71;32.17;51.21;;
71016;Laerm;60940;52.046;5.340;2023-04-15T00:56:19;44.63;37.74;52.96;;
71016;Laerm;60940;52.046;5.340;2023-04-15T00:56:33;39.64;32.45;48.94;;
71016;Laerm;60940;52.046;5.340;2023-04-15T00:56:44;36.76;32.29;41.73;;
71016;Laerm;60940;52.046;5.340;2023-04-15T00:56:54;34.67;30.86;37.55;;
71016;Laerm;60940;52.046;5.340;2023-04-15T00:57:05;33.86;30.94;38.79;;
71016;Laerm;60940;52.046;5.340;2023-04-15T00:57:16;32.90;29.34;36.83;;
71016;Laerm;60940;52.046;5.340;2023-04-15T00:57:27;32.67;29.95;36.57;;
71016;Laerm;60940;52.046;5.340;2023-04-15T00:57:38;32.41;30.05;34.93;;
71016;Laerm;60940;52.046;5.340;2023-04-15T00:57:48;33.04;30.84;35.94;;
71016;Laerm;60940;52.046;5.340;2023-04-15T00:57:59;33.75;31.75;36.39;;
71016;Laerm;60940;52.046;5.340;2023-04-15T00:58:09;32.17;29.99;35.93;;
71016;Laerm;60940;52.046;5.340;2023-04-15T00:58:20;31.17;29.43;33.22;;
71016;Laerm;60940;52.046;5.340;2023-04-15T00:58:30;31.27;29.35;33.24;;
71016;Laerm;60940;52.046;5.340;2023-04-15T00:58:40;30.02;28.72;32.66;;
71016;Laerm;60940;52.046;5.340;2023-04-15T00:58:51;29.68;28.46;30.91;;
71016;Laerm;60940;52.046;5.340;2023-04-15T00:59:01;32.88;30.01;35.11;;
71016;Laerm;60940;52.046;5.340;2023-04-15T00:59:11;34.27;30.62;46.56;;
71016;Laerm;60940;52.046;5.340;2023-04-15T00:59:22;41.30;31.38;53.69;;
71016;Laerm;60940;52.046;5.340;2023-04-15T00:59:32;40.73;30.28;57.53;;